sensor_id;sensor_type;location;lat;lon;timestamp;pressure;altitude;pressure_sealevel;temperature
64947;BMP280;51469;52.150;4.682;2023-07-13T00:03:47;101517.00;;;23.95
64947;BMP280;51469;52.150;4.682;2023-07-13T00:06:12;101531.94;;;23.92
64947;BMP280;51469;52.150;4.682;2023-07-13T00:08:38;101535.56;;;23.92
64947;BMP280;51469;52.150;4.682;2023-07-13T00:11:03;101532.31;;;23.94
64947;BMP280;51469;52.150;4.682;2023-07-13T00:13:30;101526.16;;;24.08
64947;BMP280;51469;52.150;4.682;2023-07-13T00:15:58;101529.72;;;24.08
64947;BMP280;51469;52.150;4.682;2023-07-13T00:18:23;101528.19;;;24.07
64947;BMP280;51469;52.150;4.682;2023-07-13T00:20:49;101530.72;;;24.14
64947;BMP280;51469;52.150;4.682;2023-07-13T00:23:15;101521.47;;;24.05
64947;BMP280;51469;52.150;4.682;2023-07-13T00:25:40;101527.59;;;24.12
64947;BMP280;51469;52.150;4.682;2023-07-13T00:28:06;101521.78;;;24.07
64947;BMP280;51469;52.150;4.682;2023-07-13T00:30:31;101528.22;;;24.16
64947;BMP280;51469;52.150;4.682;2023-07-13T00:32:56;101527.63;;;24.21
64947;BMP280;51469;52.150;4.682;2023-07-13T00:35:22;101525.25;;;24.11
64947;BMP280;51469;52.150;4.682;2023-07-13T00:37:48;101531.63;;;24.11
64947;BMP280;51469;52.150;4.682;2023-07-13T00:40:15;101538.84;;;24.21
64947;BMP280;51469;52.150;4.682;2023-07-13T00:42:41;101536.06;;;24.21
64947;BMP280;51469;52.150;4.682;2023-07-13T00:47:53;101538.25;;;24.26
64947;BMP280;51469;52.150;4.682;2023-07-13T00:50:21;101539.44;;;24.16
64947;BMP280;51469;52.150;4.682;2023-07-13T00:52:50;101533.81;;;24.16
64947;BMP280;51469;52.150;4.682;2023-07-13T00:55:18;101529.00;;;24.17
64947;BMP280;51469;52.150;4.682;2023-07-13T00:57:45;101537.88;;;24.15
64947;BMP280;51469;52.150;4.682;2023-07-13T01:00:11;101542.38;;;24.13
64947;BMP280;51469;52.150;4.682;2023-07-13T01:02:39;101539.69;;;24.09
64947;BMP280;51469;52.150;4.682;2023-07-13T01:05:16;101542.84;;;24.11
64947;BMP280;51469;52.150;4.682;2023-07-13T01:07:43;101541.41;;;24.07
64947;BMP280;51469;52.150;4.682;2023-07-13T01:10:10;101544.78;;;24.02
64947;BMP280;51469;52.150;4.682;2023-07-13T01:12:36;101537.00;;;23.97
64947;BMP280;51469;52.150;4.682;2023-07-13T01:15:02;101545.78;;;23.86
64947;BMP280;51469;52.150;4.682;2023-07-13T01:17:30;101544.41;;;23.91
64947;BMP280;51469;52.150;4.682;2023-07-13T01:19:55;101544.56;;;23.87
64947;BMP280;51469;52.150;4.682;2023-07-13T01:22:21;101550.16;;;23.87
64947;BMP280;51469;52.150;4.682;2023-07-13T01:24:52;101542.31;;;23.82
64947;BMP280;51469;52.150;4.682;2023-07-13T01:27:22;101544.56;;;23.87
64947;BMP280;51469;52.150;4.682;2023-07-13T01:29:50;101548.56;;;23.86
64947;BMP280;51469;52.150;4.682;2023-07-13T01:32:19;101551.38;;;23.86
64947;BMP280;51469;52.150;4.682;2023-07-13T01:34:48;101552.06;;;23.90
64947;BMP280;51469;52.150;4.682;2023-07-13T01:37:13;101552.38;;;23.92
64947;BMP280;51469;52.150;4.682;2023-07-13T01:39:39;101547.97;;;23.91
64947;BMP280;51469;52.150;4.682;2023-07-13T01:42:05;101549.81;;;23.85
64947;BMP280;51469;52.150;4.682;2023-07-13T01:44:30;101558.47;;;23.78
64947;BMP280;51469;52.150;4.682;2023-07-13T01:46:56;101559.50;;;23.72
64947;BMP280;51469;52.150;4.682;2023-07-13T01:49:21;101558.31;;;23.60
64947;BMP280;51469;52.150;4.682;2023-07-13T01:51:47;101561.25;;;23.57
64947;BMP280;51469;52.150;4.682;2023-07-13T01:54:12;101556.66;;;23.50
64947;BMP280;51469;52.150;4.682;2023-07-13T01:56:37;101565.06;;;23.50
64947;BMP280;51469;52.150;4.682;2023-07-13T01:59:03;101568.66;;;23.51
64947;BMP280;51469;52.150;4.682;2023-07-13T02:01:29;101572.81;;;23.46
64947;BMP280;51469;52.150;4.682;2023-07-13T02:03:54;101563.09;;;23.38
64947;BMP280;51469;52.150;4.682;2023-07-13T02:06:19;101575.63;;;23.46
64947;BMP280;51469;52.150;4.682;2023-07-13T02:08:45;101579.00;;;23.41
64947;BMP280;51469;52.150;4.682;2023-07-13T02:11:10;101580.44;;;23.46
64947;BMP280;51469;52.150;4.682;2023-07-13T02:13:36;101580.09;;;23.44
64947;BMP280;51469;52.150;4.682;2023-07-13T02:16:01;101583.28;;;23.33
64947;BMP280;51469;52.150;4.682;2023-07-13T02:18:26;101583.59;;;23.35
64947;BMP280;51469;52.150;4.682;2023-07-13T02:20:52;101586.66;;;23.28
64947;BMP280;51469;52.150;4.682;2023-07-13T02:23:17;101588.22;;;23.29
64947;BMP280;51469;52.150;4.682;2023-07-13T02:25:44;101584.88;;;23.22
64947;BMP280;51469;52.150;4.682;2023-07-13T02:28:09;101580.47;;;23.21
64947;BMP280;51469;52.150;4.682;2023-07-13T02:30:35;101573.31;;;23.20
64947;BMP280;51469;52.150;4.682;2023-07-13T02:33:00;101575.09;;;23.14
64947;BMP280;51469;52.150;4.682;2023-07-13T02:35:26;101574.34;;;23.13
64947;BMP280;51469;52.150;4.682;2023-07-13T02:37:51;101577.59;;;23.12
64947;BMP280;51469;52.150;4.682;2023-07-13T02:40:17;101575.09;;;23.14
64947;BMP280;51469;52.150;4.682;2023-07-13T02:42:42;101571.22;;;23.11
64947;BMP280;51469;52.150;4.682;2023-07-13T02:45:08;101573.66;;;23.09
64947;BMP280;51469;52.150;4.682;2023-07-13T02:47:35;101569.66;;;23.10
64947;BMP280;51469;52.150;4.682;2023-07-13T02:50:00;101574.22;;;23.04
64947;BMP280;51469;52.150;4.682;2023-07-13T02:52:26;101581.50;;;22.89
64947;BMP280;51469;52.150;4.682;2023-07-13T02:54:51;101578.03;;;22.86
64947;BMP280;51469;52.150;4.682;2023-07-13T02:57:17;101573.66;;;22.84
64947;BMP280;51469;52.150;4.682;2023-07-13T02:59:42;101600.97;;;22.81
64947;BMP280;51469;52.150;4.682;2023-07-13T03:02:08;101587.34;;;22.83
64947;BMP280;51469;52.150;4.682;2023-07-13T03:04:35;101582.97;;;22.82
64947;BMP280;51469;52.150;4.682;2023-07-13T03:07:01;101581.63;;;22.86
64947;BMP280;51469;52.150;4.682;2023-07-13T03:09:26;101578.59;;;22.81
64947;BMP280;51469;52.150;4.682;2023-07-13T03:11:53;101584.28;;;22.77
64947;BMP280;51469;52.150;4.682;2023-07-13T03:14:19;101578.81;;;22.74
64947;BMP280;51469;52.150;4.682;2023-07-13T03:16:44;101582.84;;;22.73
64947;BMP280;51469;52.150;4.682;2023-07-13T03:19:10;101594.34;;;22.75
64947;BMP280;51469;52.150;4.682;2023-07-13T03:21:35;101592.25;;;22.79
64947;BMP280;51469;52.150;4.682;2023-07-13T03:24:00;101587.66;;;22.72
64947;BMP280;51469;52.150;4.682;2023-07-13T03:26:26;101587.75;;;22.69
64947;BMP280;51469;52.150;4.682;2023-07-13T03:28:51;101581.28;;;22.72
64947;BMP280;51469;52.150;4.682;2023-07-13T03:31:20;101587.56;;;22.76
64947;BMP280;51469;52.150;4.682;2023-07-13T03:33:46;101589.31;;;22.70
64947;BMP280;51469;52.150;4.682;2023-07-13T03:36:17;101593.25;;;22.72
64947;BMP280;51469;52.150;4.682;2023-07-13T03:38:47;101586.09;;;22.71
64947;BMP280;51469;52.150;4.682;2023-07-13T03:41:13;101591.81;;;22.68
64947;BMP280;51469;52.150;4.682;2023-07-13T03:43:38;101592.78;;;22.74
64947;BMP280;51469;52.150;4.682;2023-07-13T03:46:04;101594.59;;;22.68
64947;BMP280;51469;52.150;4.682;2023-07-13T03:48:29;101596.13;;;22.69
64947;BMP280;51469;52.150;4.682;2023-07-13T03:50:54;101591.81;;;22.68
64947;BMP280;51469;52.150;4.682;2023-07-13T03:53:20;101591.91;;;22.64
64947;BMP280;51469;52.150;4.682;2023-07-13T03:55:45;101593.34;;;22.69
64947;BMP280;51469;52.150;4.682;2023-07-13T03:58:47;101601.28;;;22.70
64947;BMP280;51469;52.150;4.682;2023-07-13T04:01:13;101598.28;;;22.65
64947;BMP280;51469;52.150;4.682;2023-07-13T04:03:39;101602.09;;;22.71
64947;BMP280;51469;52.150;4.682;2023-07-13T04:06:07;101604.53;;;22.69
64947;BMP280;51469;52.150;4.682;2023-07-13T04:08:35;101602.00;;;22.74
64947;BMP280;51469;52.150;4.682;2023-07-13T04:11:03;101600.50;;;22.70
64947;BMP280;51469;52.150;4.682;2023-07-13T04:13:29;101603.66;;;22.72
64947;BMP280;51469;52.150;4.682;2023-07-13T04:15:55;101598.94;;;22.69
64947;BMP280;51469;52.150;4.682;2023-07-13T04:18:20;101605.56;;;22.75
64947;BMP280;51469;52.150;4.682;2023-07-13T04:20:49;101608.13;;;22.82
64947;BMP280;51469;52.150;4.682;2023-07-13T04:23:16;101614.44;;;22.86
64947;BMP280;51469;52.150;4.682;2023-07-13T04:25:47;101612.41;;;22.86
64947;BMP280;51469;52.150;4.682;2023-07-13T04:28:17;101617.88;;;22.89
64947;BMP280;51469;52.150;4.682;2023-07-13T04:30:43;101614.31;;;22.89
64947;BMP280;51469;52.150;4.682;2023-07-13T04:33:08;101627.84;;;22.90
64947;BMP280;51469;52.150;4.682;2023-07-13T04:35:34;101630.09;;;22.95
64947;BMP280;51469;52.150;4.682;2023-07-13T04:38:00;101622.03;;;22.97
64947;BMP280;51469;52.150;4.682;2023-07-13T04:40:27;101623.38;;;23.05
64947;BMP280;51469;52.150;4.682;2023-07-13T04:42:52;101631.78;;;23.05
64947;BMP280;51469;52.150;4.682;2023-07-13T04:45:18;101622.94;;;23.19
64947;BMP280;51469;52.150;4.682;2023-07-13T04:47:43;101620.47;;;23.21
64947;BMP280;51469;52.150;4.682;2023-07-13T04:50:09;101630.75;;;23.24
64947;BMP280;51469;52.150;4.682;2023-07-13T04:52:36;101637.16;;;23.25
64947;BMP280;51469;52.150;4.682;2023-07-13T04:55:01;101636.38;;;23.24
64947;BMP280;51469;52.150;4.682;2023-07-13T04:57:27;101629.09;;;23.27
64947;BMP280;51469;52.150;4.682;2023-07-13T04:59:53;101636.38;;;23.24
64947;BMP280;51469;52.150;4.682;2023-07-13T05:02:20;101629.09;;;23.27
64947;BMP280;51469;52.150;4.682;2023-07-13T05:04:47;101639.53;;;23.26
64947;BMP280;51469;52.150;4.682;2023-07-13T05:07:13;101641.06;;;23.27
64947;BMP280;51469;52.150;4.682;2023-07-13T05:09:39;101641.41;;;23.29
64947;BMP280;51469;52.150;4.682;2023-07-13T05:12:08;101643.75;;;23.43
64947;BMP280;51469;52.150;4.682;2023-07-13T05:14:34;101640.06;;;23.46
64947;BMP280;51469;52.150;4.682;2023-07-13T05:17:00;101639.38;;;23.55
64947;BMP280;51469;52.150;4.682;2023-07-13T05:19:26;101648.97;;;23.66
64947;BMP280;51469;52.150;4.682;2023-07-13T05:21:51;101650.91;;;23.69
64947;BMP280;51469;52.150;4.682;2023-07-13T05:24:17;101651.50;;;23.73
64947;BMP280;51469;52.150;4.682;2023-07-13T05:26:42;101658.44;;;23.81
64947;BMP280;51469;52.150;4.682;2023-07-13T05:29:07;101649.47;;;23.86
64947;BMP280;51469;52.150;4.682;2023-07-13T05:31:33;101657.41;;;24.00
64947;BMP280;51469;52.150;4.682;2023-07-13T05:33:58;101659.97;;;24.07
64947;BMP280;51469;52.150;4.682;2023-07-13T05:36:23;101649.16;;;24.18
64947;BMP280;51469;52.150;4.682;2023-07-13T05:38:49;101653.00;;;24.33
64947;BMP280;51469;52.150;4.682;2023-07-13T05:41:14;101656.78;;;24.39
64947;BMP280;51469;52.150;4.682;2023-07-13T05:43:39;101659.06;;;24.53
64947;BMP280;51469;52.150;4.682;2023-07-13T05:46:05;101655.09;;;24.63
64947;BMP280;51469;52.150;4.682;2023-07-13T05:48:30;101665.41;;;24.75
64947;BMP280;51469;52.150;4.682;2023-07-13T05:50:55;101662.03;;;24.80
64947;BMP280;51469;52.150;4.682;2023-07-13T05:53:21;101664.53;;;24.87
64947;BMP280;51469;52.150;4.682;2023-07-13T05:55:47;101665.81;;;24.86
64947;BMP280;51469;52.150;4.682;2023-07-13T05:58:16;101665.50;;;24.93
64947;BMP280;51469;52.150;4.682;2023-07-13T06:00:41;101669.63;;;25.01
64947;BMP280;51469;52.150;4.682;2023-07-13T06:03:07;101665.56;;;25.11
64947;BMP280;51469;52.150;4.682;2023-07-13T06:05:33;101674.38;;;25.31
64947;BMP280;51469;52.150;4.682;2023-07-13T06:08:00;101671.78;;;25.37
64947;BMP280;51469;52.150;4.682;2023-07-13T06:10:25;101674.69;;;25.24
64947;BMP280;51469;52.150;4.682;2023-07-13T06:12:50;101682.16;;;25.18
64947;BMP280;51469;52.150;4.682;2023-07-13T06:15:16;101685.72;;;25.10
64947;BMP280;51469;52.150;4.682;2023-07-13T06:17:42;101687.72;;;25.00
64947;BMP280;51469;52.150;4.682;2023-07-13T06:20:07;101686.91;;;25.00
64947;BMP280;51469;52.150;4.682;2023-07-13T06:22:32;101691.75;;;24.99
64947;BMP280;51469;52.150;4.682;2023-07-13T06:24:58;101694.47;;;24.81
64947;BMP280;51469;52.150;4.682;2023-07-13T06:27:24;101699.75;;;24.79
64947;BMP280;51469;52.150;4.682;2023-07-13T06:29:49;101698.84;;;24.82
64947;BMP280;51469;52.150;4.682;2023-07-13T06:32:14;101693.47;;;24.75
64947;BMP280;51469;52.150;4.682;2023-07-13T06:34:40;101710.88;;;24.92
64947;BMP280;51469;52.150;4.682;2023-07-13T06:37:05;101707.63;;;24.93
64947;BMP280;51469;52.150;4.682;2023-07-13T06:39:31;101703.34;;;25.10
64947;BMP280;51469;52.150;4.682;2023-07-13T06:41:57;101703.81;;;25.48
64947;BMP280;51469;52.150;4.682;2023-07-13T06:44:22;101697.88;;;25.64
64947;BMP280;51469;52.150;4.682;2023-07-13T06:46:47;101699.16;;;25.72
64947;BMP280;51469;52.150;4.682;2023-07-13T06:49:13;101707.03;;;25.86
64947;BMP280;51469;52.150;4.682;2023-07-13T06:51:38;101717.97;;;26.02
64947;BMP280;51469;52.150;4.682;2023-07-13T06:54:03;101711.38;;;26.05
64947;BMP280;51469;52.150;4.682;2023-07-13T06:56:29;101721.09;;;26.04
64947;BMP280;51469;52.150;4.682;2023-07-13T06:58:54;101720.44;;;26.09
64947;BMP280;51469;52.150;4.682;2023-07-13T07:01:20;101724.22;;;26.06
64947;BMP280;51469;52.150;4.682;2023-07-13T07:03:45;101724.22;;;26.15
64947;BMP280;51469;52.150;4.682;2023-07-13T07:06:13;101723.88;;;26.22
64947;BMP280;51469;52.150;4.682;2023-07-13T07:08:40;101729.81;;;26.42
64947;BMP280;51469;52.150;4.682;2023-07-13T07:11:08;101721.06;;;26.22
64947;BMP280;51469;52.150;4.682;2023-07-13T07:13:33;101720.63;;;26.32
64947;BMP280;51469;52.150;4.682;2023-07-13T07:15:58;101733.28;;;26.37
64947;BMP280;51469;52.150;4.682;2023-07-13T07:18:25;101723.91;;;26.40
64947;BMP280;51469;52.150;4.682;2023-07-13T07:20:50;101720.16;;;26.34
64947;BMP280;51469;52.150;4.682;2023-07-13T07:23:15;101730.44;;;26.28
64947;BMP280;51469;52.150;4.682;2023-07-13T07:25:43;101733.75;;;26.26
64947;BMP280;51469;52.150;4.682;2023-07-13T07:28:09;101728.59;;;26.16
64947;BMP280;51469;52.150;4.682;2023-07-13T07:30:34;101738.28;;;26.06
64947;BMP280;51469;52.150;4.682;2023-07-13T07:33:00;101740.31;;;26.05
64947;BMP280;51469;52.150;4.682;2023-07-13T07:35:26;101741.84;;;25.97
64947;BMP280;51469;52.150;4.682;2023-07-13T07:37:52;101741.41;;;25.99
64947;BMP280;51469;52.150;4.682;2023-07-13T07:40:18;101734.50;;;25.91
64947;BMP280;51469;52.150;4.682;2023-07-13T07:42:43;101747.19;;;25.95
64947;BMP280;51469;52.150;4.682;2023-07-13T07:45:09;101738.88;;;25.92
64947;BMP280;51469;52.150;4.682;2023-07-13T07:47:36;101736.09;;;26.01
64947;BMP280;51469;52.150;4.682;2023-07-13T07:50:02;101754.53;;;26.11
64947;BMP280;51469;52.150;4.682;2023-07-13T07:52:27;101749.50;;;25.97
64947;BMP280;51469;52.150;4.682;2023-07-13T07:54:53;101753.91;;;26.07
64947;BMP280;51469;52.150;4.682;2023-07-13T07:57:18;101750.16;;;26.01
64947;BMP280;51469;52.150;4.682;2023-07-13T07:59:44;101754.84;;;26.04
64947;BMP280;51469;52.150;4.682;2023-07-13T08:02:10;101758.56;;;26.10
64947;BMP280;51469;52.150;4.682;2023-07-13T08:04:36;101744.81;;;26.48
64947;BMP280;51469;52.150;4.682;2023-07-13T08:07:02;101756.69;;;26.70
64947;BMP280;51469;52.150;4.682;2023-07-13T08:09:28;101747.50;;;26.42
64947;BMP280;51469;52.150;4.682;2023-07-13T08:11:54;101749.34;;;26.54
64947;BMP280;51469;52.150;4.682;2023-07-13T08:14:20;101737.97;;;26.40
64947;BMP280;51469;52.150;4.682;2023-07-13T08:16:45;101751.72;;;26.02
64947;BMP280;51469;52.150;4.682;2023-07-13T08:19:10;101750.75;;;25.78
64947;BMP280;51469;52.150;4.682;2023-07-13T08:21:36;101755.13;;;25.97
64947;BMP280;51469;52.150;4.682;2023-07-13T08:24:02;101752.00;;;25.86
64947;BMP280;51469;52.150;4.682;2023-07-13T08:26:28;101756.25;;;26.08
64947;BMP280;51469;52.150;4.682;2023-07-13T08:28:53;101760.78;;;26.15
64947;BMP280;51469;52.150;4.682;2023-07-13T08:31:18;101765.72;;;25.75
64947;BMP280;51469;52.150;4.682;2023-07-13T08:33:44;101759.72;;;25.55
64947;BMP280;51469;52.150;4.682;2023-07-13T08:36:10;101762.53;;;25.55
64947;BMP280;51469;52.150;4.682;2023-07-13T08:38:35;101758.19;;;25.72
64947;BMP280;51469;52.150;4.682;2023-07-13T08:41:05;101766.41;;;26.15
64947;BMP280;51469;52.150;4.682;2023-07-13T08:43:36;101752.19;;;26.45
64947;BMP280;51469;52.150;4.682;2023-07-13T08:46:25;101763.56;;;26.60
64947;BMP280;51469;52.150;4.682;2023-07-13T08:48:56;101768.28;;;26.72
64947;BMP280;51469;52.150;4.682;2023-07-13T08:51:39;101750.59;;;26.80
64947;BMP280;51469;52.150;4.682;2023-07-13T08:54:19;101759.44;;;26.97
64947;BMP280;51469;52.150;4.682;2023-07-13T08:56:46;101760.09;;;26.74
64947;BMP280;51469;52.150;4.682;2023-07-13T08:59:17;101764.50;;;26.75
64947;BMP280;51469;52.150;4.682;2023-07-13T09:04:36;101771.88;;;27.23
64947;BMP280;51469;52.150;4.682;2023-07-13T09:07:09;101775.88;;;27.40
64947;BMP280;51469;52.150;4.682;2023-07-13T09:10:14;101787.16;;;26.89
64947;BMP280;51469;52.150;4.682;2023-07-13T09:15:40;101770.75;;;27.29
64947;BMP280;51469;52.150;4.682;2023-07-13T09:18:12;101779.69;;;27.28
64947;BMP280;51469;52.150;4.682;2023-07-13T09:20:51;101774.72;;;27.14
64947;BMP280;51469;52.150;4.682;2023-07-13T09:23:21;101776.09;;;26.68
64947;BMP280;51469;52.150;4.682;2023-07-13T09:25:49;101789.66;;;26.87
64947;BMP280;51469;52.150;4.682;2023-07-13T09:28:26;101783.44;;;27.25
64947;BMP280;51469;52.150;4.682;2023-07-13T09:30:56;101783.41;;;27.34
64947;BMP280;51469;52.150;4.682;2023-07-13T09:33:23;101786.47;;;27.45
64947;BMP280;51469;52.150;4.682;2023-07-13T09:35:49;101781.41;;;27.58
64947;BMP280;51469;52.150;4.682;2023-07-13T09:38:19;101778.22;;;27.73
64947;BMP280;51469;52.150;4.682;2023-07-13T09:41:04;101774.50;;;28.05
64947;BMP280;51469;52.150;4.682;2023-07-13T09:43:34;101793.03;;;27.74
64947;BMP280;51469;52.150;4.682;2023-07-13T09:45:59;101792.94;;;27.68
64947;BMP280;51469;52.150;4.682;2023-07-13T09:48:34;101794.50;;;27.69
64947;BMP280;51469;52.150;4.682;2023-07-13T09:51:07;101794.16;;;27.76
64947;BMP280;51469;52.150;4.682;2023-07-13T09:53:35;101795.97;;;27.88
64947;BMP280;51469;52.150;4.682;2023-07-13T09:56:01;101789.59;;;28.02
64947;BMP280;51469;52.150;4.682;2023-07-13T09:58:30;101810.41;;;28.05
64947;BMP280;51469;52.150;4.682;2023-07-13T10:01:00;101812.44;;;28.04
64947;BMP280;51469;52.150;4.682;2023-07-13T10:03:29;101817.88;;;27.93
64947;BMP280;51469;52.150;4.682;2023-07-13T10:06:14;101805.53;;;27.58
64947;BMP280;51469;52.150;4.682;2023-07-13T10:08:40;101821.84;;;27.55
64947;BMP280;51469;52.150;4.682;2023-07-13T10:13:37;101828.91;;;27.09
64947;BMP280;51469;52.150;4.682;2023-07-13T10:16:06;101834.19;;;27.16
64947;BMP280;51469;52.150;4.682;2023-07-13T10:18:55;101837.41;;;26.91
64947;BMP280;51469;52.150;4.682;2023-07-13T10:21:22;101837.19;;;27.21
64947;BMP280;51469;52.150;4.682;2023-07-13T10:23:52;101836.69;;;27.23
64947;BMP280;51469;52.150;4.682;2023-07-13T10:26:26;101850.28;;;27.33
64947;BMP280;51469;52.150;4.682;2023-07-13T10:28:55;101854.66;;;27.25
64947;BMP280;51469;52.150;4.682;2023-07-13T10:31:22;101847.66;;;27.21
64947;BMP280;51469;52.150;4.682;2023-07-13T10:33:48;101863.53;;;27.42
64947;BMP280;51469;52.150;4.682;2023-07-13T10:36:20;101848.72;;;27.97
64947;BMP280;51469;52.150;4.682;2023-07-13T10:38:49;101843.84;;;28.44
64947;BMP280;51469;52.150;4.682;2023-07-13T10:41:19;101849.63;;;28.26
64947;BMP280;51469;52.150;4.682;2023-07-13T10:43:48;101849.72;;;28.08
64947;BMP280;51469;52.150;4.682;2023-07-13T10:46:17;101854.34;;;27.64
64947;BMP280;51469;52.150;4.682;2023-07-13T10:48:46;101863.88;;;27.35
64947;BMP280;51469;52.150;4.682;2023-07-13T10:51:14;101861.53;;;27.74
64947;BMP280;51469;52.150;4.682;2023-07-13T10:53:40;101863.94;;;27.90
64947;BMP280;51469;52.150;4.682;2023-07-13T10:56:29;101871.97;;;28.15
64947;BMP280;51469;52.150;4.682;2023-07-13T10:59:16;101866.94;;;27.63
64947;BMP280;51469;52.150;4.682;2023-07-13T11:01:58;101863.78;;;27.70
64947;BMP280;51469;52.150;4.682;2023-07-13T11:04:46;101866.78;;;27.58
64947;BMP280;51469;52.150;4.682;2023-07-13T11:09:56;101866.56;;;27.29
64947;BMP280;51469;52.150;4.682;2023-07-13T11:25:34;101874.94;;;28.35
64947;BMP280;51469;52.150;4.682;2023-07-13T11:28:21;101866.28;;;28.24
64947;BMP280;51469;52.150;4.682;2023-07-13T11:34:02;101866.56;;;28.26
64947;BMP280;51469;52.150;4.682;2023-07-13T11:36:16;101862.94;;;28.02
64947;BMP280;51469;52.150;4.682;2023-07-13T11:41:50;101876.03;;;28.14
64947;BMP280;51469;52.150;4.682;2023-07-13T11:44:21;101872.22;;;28.26
64947;BMP280;51469;52.150;4.682;2023-07-13T11:46:55;101877.50;;;28.48
64947;BMP280;51469;52.150;4.682;2023-07-13T11:49:26;101872.06;;;28.82
64947;BMP280;51469;52.150;4.682;2023-07-13T11:51:55;101875.31;;;28.81
64947;BMP280;51469;52.150;4.682;2023-07-13T11:54:33;101875.81;;;28.79
64947;BMP280;51469;52.150;4.682;2023-07-13T11:57:02;101879.38;;;28.89
64947;BMP280;51469;52.150;4.682;2023-07-13T11:59:32;101884.78;;;28.92
64947;BMP280;51469;52.150;4.682;2023-07-13T12:01:58;101878.16;;;29.24
64947;BMP280;51469;52.150;4.682;2023-07-13T12:04:26;101877.31;;;29.67
64947;BMP280;51469;52.150;4.682;2023-07-13T12:06:57;101876.38;;;29.90
64947;BMP280;51469;52.150;4.682;2023-07-13T12:09:26;101876.06;;;30.28
64947;BMP280;51469;52.150;4.682;2023-07-13T12:11:52;101868.66;;;30.30
64947;BMP280;51469;52.150;4.682;2023-07-13T12:14:18;101869.78;;;29.98
64947;BMP280;51469;52.150;4.682;2023-07-13T12:16:45;101874.09;;;29.74
64947;BMP280;51469;52.150;4.682;2023-07-13T12:19:29;101880.84;;;29.62
64947;BMP280;51469;52.150;4.682;2023-07-13T12:21:58;101872.78;;;29.75
64947;BMP280;51469;52.150;4.682;2023-07-13T12:24:25;101872.13;;;30.00
64947;BMP280;51469;52.150;4.682;2023-07-13T12:27:02;101878.75;;;29.77
64947;BMP280;51469;52.150;4.682;2023-07-13T12:29:32;101870.63;;;29.84
64947;BMP280;51469;52.150;4.682;2023-07-13T12:31:58;101880.00;;;29.90
64947;BMP280;51469;52.150;4.682;2023-07-13T12:34:25;101883.16;;;29.29
64947;BMP280;51469;52.150;4.682;2023-07-13T12:36:53;101884.41;;;28.99
64947;BMP280;51469;52.150;4.682;2023-07-13T12:41:51;101891.81;;;28.82
64947;BMP280;51469;52.150;4.682;2023-07-13T12:44:27;101881.03;;;28.57
64947;BMP280;51469;52.150;4.682;2023-07-13T12:46:57;101887.25;;;28.23
64947;BMP280;51469;52.150;4.682;2023-07-13T12:49:25;101882.03;;;28.07
64947;BMP280;51469;52.150;4.682;2023-07-13T12:51:56;101876.38;;;28.07
64947;BMP280;51469;52.150;4.682;2023-07-13T12:54:22;101889.50;;;28.19
64947;BMP280;51469;52.150;4.682;2023-07-13T12:56:52;101880.88;;;28.61
64947;BMP280;51469;52.150;4.682;2023-07-13T12:59:21;101885.94;;;28.57
64947;BMP280;51469;52.150;4.682;2023-07-13T13:01:48;101881.63;;;28.61
64947;BMP280;51469;52.150;4.682;2023-07-13T13:04:18;101895.47;;;28.59
64947;BMP280;51469;52.150;4.682;2023-07-13T13:06:47;101895.69;;;28.85
64947;BMP280;51469;52.150;4.682;2023-07-13T13:09:15;101898.81;;;28.87
64947;BMP280;51469;52.150;4.682;2023-07-13T13:11:41;101902.41;;;28.87
64947;BMP280;51469;52.150;4.682;2023-07-13T13:14:07;101898.41;;;28.79
64947;BMP280;51469;52.150;4.682;2023-07-13T13:16:45;101907.56;;;28.74
64947;BMP280;51469;52.150;4.682;2023-07-13T13:19:17;101923.47;;;28.48
64947;BMP280;51469;52.150;4.682;2023-07-13T13:21:44;101916.50;;;28.58
64947;BMP280;51469;52.150;4.682;2023-07-13T13:24:15;101910.50;;;28.65
64947;BMP280;51469;52.150;4.682;2023-07-13T13:26:42;101911.50;;;28.91
64947;BMP280;51469;52.150;4.682;2023-07-13T13:29:31;101912.59;;;29.08
64947;BMP280;51469;52.150;4.682;2023-07-13T13:31:56;101902.72;;;28.89
64947;BMP280;51469;52.150;4.682;2023-07-13T13:34:23;101915.00;;;29.01
64947;BMP280;51469;52.150;4.682;2023-07-13T13:36:49;101903.91;;;28.97
64947;BMP280;51469;52.150;4.682;2023-07-13T13:39:22;101914.44;;;28.82
64947;BMP280;51469;52.150;4.682;2023-07-13T13:41:49;101913.44;;;28.85
64947;BMP280;51469;52.150;4.682;2023-07-13T13:44:16;101922.59;;;28.80
64947;BMP280;51469;52.150;4.682;2023-07-13T13:46:44;101924.81;;;28.76
64947;BMP280;51469;52.150;4.682;2023-07-13T13:49:15;101917.50;;;28.84
64947;BMP280;51469;52.150;4.682;2023-07-13T13:51:41;101922.81;;;28.53
64947;BMP280;51469;52.150;4.682;2023-07-13T13:54:11;101925.81;;;28.50
64947;BMP280;51469;52.150;4.682;2023-07-13T13:56:36;101922.63;;;28.57
64947;BMP280;51469;52.150;4.682;2023-07-13T13:59:02;101922.28;;;28.78
64947;BMP280;51469;52.150;4.682;2023-07-13T14:01:28;101936.22;;;28.67
64947;BMP280;51469;52.150;4.682;2023-07-13T14:03:54;101908.72;;;28.68
64947;BMP280;51469;52.150;4.682;2023-07-13T14:06:19;101919.16;;;28.76
64947;BMP280;51469;52.150;4.682;2023-07-13T14:08:45;101920.59;;;28.72
64947;BMP280;51469;52.150;4.682;2023-07-13T14:11:16;101925.41;;;28.42
64947;BMP280;51469;52.150;4.682;2023-07-13T14:13:44;101922.91;;;28.44
64947;BMP280;51469;52.150;4.682;2023-07-13T14:16:20;101914.69;;;28.46
64947;BMP280;51469;52.150;4.682;2023-07-13T14:18:47;101925.78;;;28.35
64947;BMP280;51469;52.150;4.682;2023-07-13T14:21:22;101921.16;;;28.61
64947;BMP280;51469;52.150;4.682;2023-07-13T14:23:48;101937.53;;;28.57
64947;BMP280;51469;52.150;4.682;2023-07-13T14:26:19;101926.81;;;28.61
64947;BMP280;51469;52.150;4.682;2023-07-13T14:28:47;101933.88;;;28.42
64947;BMP280;51469;52.150;4.682;2023-07-13T14:31:15;101926.34;;;28.16
64947;BMP280;51469;52.150;4.682;2023-07-13T14:33:41;101924.41;;;27.98
64947;BMP280;51469;52.150;4.682;2023-07-13T14:36:40;101927.03;;;27.78
64947;BMP280;51469;52.150;4.682;2023-07-13T14:39:15;101934.91;;;27.98